Terminal Aerodrome Forecast
Issued by NWS San Angelo, TX

Home | Current Version | Previous Version | Text Only | Print | Product List | Glossary On
Versions: 1 2 3 4 5 6 7 8 9 10 11 12 13 14 15 16 17 18 19 20 21
000
FTUS44 KSJT 051246 AAA
TAFSJT
TAF AMD
KSJT 051246Z 0513/0612 18009KT P6SM FEW025
     FM051700 17010KT P6SM SCT080
     FM060200 16007KT P6SM SKC=

USA.gov is the U.S. government's official web portal to all federal, state and local government web resources and services.